createdAt,value
2018-09-23T00:00:14.766Z,999.79
2018-09-23T00:01:21.034Z,999.77
2018-09-23T00:02:27.312Z,999.77
2018-09-23T00:03:33.596Z,999.77
2018-09-23T00:04:39.881Z,999.79
2018-09-23T00:05:46.152Z,999.79
2018-09-23T00:06:52.411Z,999.78
2018-09-23T00:07:58.682Z,999.76
2018-09-23T00:09:04.959Z,999.77
2018-09-23T00:10:11.292Z,999.82
2018-09-23T00:11:17.504Z,999.80
2018-09-23T00:12:23.779Z,999.82
2018-09-23T00:13:30.054Z,999.82
2018-09-23T00:14:36.340Z,999.80
2018-09-23T00:15:42.618Z,999.84
2018-09-23T00:16:48.876Z,999.82
2018-09-23T00:17:55.282Z,999.80
2018-09-23T00:19:01.436Z,999.83
2018-09-23T00:20:07.716Z,999.81
2018-09-23T00:21:13.982Z,999.76
2018-09-23T00:22:20.360Z,999.73
2018-09-23T00:23:26.522Z,999.68
2018-09-23T00:24:32.791Z,999.67
2018-09-23T00:25:39.080Z,999.64
2018-09-23T00:26:45.349Z,999.63
2018-09-23T00:27:51.616Z,999.61
2018-09-23T00:28:57.388Z,999.58
2018-09-23T00:30:04.167Z,999.55
2018-09-23T00:31:10.441Z,999.47
2018-09-23T00:32:16.219Z,999.46
2018-09-23T00:33:22.982Z,999.39
2018-09-23T00:34:29.285Z,999.42
2018-09-23T00:35:35.535Z,999.42
2018-09-23T00:36:41.810Z,999.43
2018-09-23T00:37:47.574Z,999.43
2018-09-23T00:38:54.346Z,999.45
2018-09-23T00:40:00.622Z,999.43
2018-09-23T00:41:06.892Z,999.43
2018-09-23T00:42:13.282Z,999.42
2018-09-23T00:43:19.450Z,999.41
2018-09-23T00:44:25.725Z,999.38
2018-09-23T00:45:31.980Z,999.36
2018-09-23T00:46:38.270Z,999.34
2018-09-23T00:47:44.542Z,999.33
2018-09-23T00:48:50.810Z,999.31
2018-09-23T00:49:57.084Z,999.33
2018-09-23T00:51:03.360Z,999.33
2018-09-23T00:52:09.633Z,999.34
2018-09-23T00:53:15.914Z,999.32
2018-09-23T00:54:22.181Z,999.33
2018-09-23T00:55:28.479Z,999.30
2018-09-23T00:56:34.724Z,999.30
2018-09-23T00:57:41.000Z,999.30
2018-09-23T00:58:47.284Z,999.24
2018-09-23T00:59:53.543Z,999.16
2018-09-23T01:00:59.827Z,999.14
2018-09-23T01:02:06.080Z,999.15
2018-09-23T01:03:12.360Z,999.20
2018-09-23T01:04:18.636Z,999.17
2018-09-23T01:05:24.916Z,999.18
2018-09-23T01:06:31.281Z,999.16
2018-09-23T01:07:37.458Z,999.11
2018-09-23T01:08:43.717Z,999.05
2018-09-23T01:09:49.996Z,999.03
2018-09-23T01:10:56.260Z,999.04
2018-09-23T01:12:03.546Z,998.96
2018-09-23T01:13:08.816Z,999.00
2018-09-23T01:14:15.091Z,998.93
2018-09-23T01:15:21.359Z,998.92
2018-09-23T01:16:27.659Z,998.91
2018-09-23T01:17:33.924Z,998.86
2018-09-23T01:18:40.187Z,998.85
2018-09-23T01:19:46.459Z,998.85
2018-09-23T01:20:52.724Z,998.89
2018-09-23T01:21:59.029Z,998.83
2018-09-23T01:23:05.277Z,998.85
2018-09-23T01:24:11.550Z,998.84
2018-09-23T01:25:17.812Z,998.88
2018-09-23T01:26:24.099Z,998.88
2018-09-23T01:27:30.376Z,998.87
2018-09-23T01:28:36.647Z,998.85
2018-09-23T01:29:42.915Z,998.83
2018-09-23T01:30:49.286Z,998.83
2018-09-23T01:31:55.454Z,998.78
2018-09-23T01:33:01.722Z,998.68
2018-09-23T01:34:08.010Z,998.68
2018-09-23T01:35:14.279Z,998.66
2018-09-23T01:36:20.555Z,998.63
2018-09-23T01:37:26.827Z,998.60
2018-09-23T01:38:33.106Z,998.59
2018-09-23T01:39:39.386Z,998.59
2018-09-23T01:40:45.649Z,998.54
2018-09-23T01:41:51.937Z,998.51
2018-09-23T01:42:58.277Z,998.49
2018-09-23T01:44:04.456Z,998.41
2018-09-23T01:45:10.739Z,998.45
2018-09-23T01:46:17.006Z,998.49
2018-09-23T01:47:23.283Z,998.50
2018-09-23T01:48:29.547Z,998.47
2018-09-23T01:49:35.820Z,998.45
2018-09-23T01:50:42.106Z,998.30
2018-09-23T01:51:48.361Z,998.27
2018-09-23T01:52:54.653Z,998.25
2018-09-23T01:54:00.910Z,998.20
2018-09-23T01:55:07.177Z,998.23
2018-09-23T01:56:13.449Z,998.16
2018-09-23T01:57:19.728Z,998.12
2018-09-23T01:58:26.011Z,998.08
2018-09-23T01:59:32.290Z,998.05
2018-09-23T02:00:38.544Z,998.00
2018-09-23T02:01:44.812Z,997.96
2018-09-23T02:02:51.098Z,997.96
2018-09-23T02:03:57.382Z,997.92
2018-09-23T02:05:03.640Z,997.90
2018-09-23T02:06:09.906Z,997.92
2018-09-23T02:07:16.283Z,997.89
2018-09-23T02:08:22.435Z,997.81
2018-09-23T02:09:28.720Z,997.81
2018-09-23T02:10:34.996Z,997.79
2018-09-23T02:11:41.271Z,997.73
2018-09-23T02:12:47.585Z,997.75
2018-09-23T02:13:53.822Z,997.72
2018-09-23T02:15:00.072Z,997.75
2018-09-23T02:16:06.345Z,997.74
2018-09-23T02:17:12.633Z,997.70
2018-09-23T02:18:18.903Z,997.73
2018-09-23T02:19:25.163Z,997.73
2018-09-23T02:20:31.438Z,997.68
2018-09-23T02:21:37.706Z,997.69
2018-09-23T02:22:44.011Z,997.63
2018-09-23T02:23:49.754Z,997.62
2018-09-23T02:24:56.530Z,997.61
2018-09-23T02:26:02.297Z,997.57
2018-09-23T02:27:09.067Z,997.52
2018-09-23T02:28:15.348Z,997.57
2018-09-23T02:29:21.611Z,997.60
2018-09-23T02:30:27.899Z,997.63
2018-09-23T02:31:34.279Z,997.60
2018-09-23T02:32:40.422Z,997.60
2018-09-23T02:33:46.710Z,997.59
2018-09-23T02:34:52.973Z,997.46
2018-09-23T02:35:58.736Z,997.43
2018-09-23T02:37:05.506Z,997.43
2018-09-23T02:38:11.286Z,997.41
2018-09-23T02:39:17.542Z,997.36
2018-09-23T02:40:23.812Z,997.37
2018-09-23T02:41:30.576Z,997.37
2018-09-23T02:42:36.365Z,997.34
2018-09-23T02:43:43.127Z,997.34
2018-09-23T02:44:49.406Z,997.34
2018-09-23T02:45:55.670Z,997.25
2018-09-23T02:47:01.425Z,997.27
2018-09-23T02:48:08.282Z,997.27
2018-09-23T02:49:14.473Z,997.18
2018-09-23T02:50:20.247Z,997.16
2018-09-23T02:51:26.510Z,997.06
2018-09-23T02:52:33.275Z,997.09
2018-09-23T02:53:39.555Z,997.01
2018-09-23T02:54:45.816Z,996.98
2018-09-23T02:55:52.092Z,997.02
2018-09-23T02:56:57.857Z,997.02
2018-09-23T02:58:04.128Z,997.02
2018-09-23T02:59:10.405Z,997.02
2018-09-23T03:00:17.158Z,996.97
2018-09-23T03:01:23.422Z,996.88
2018-09-23T03:02:29.689Z,996.85
2018-09-23T03:03:35.464Z,996.76
2018-09-23T03:04:41.728Z,996.74
2018-09-23T03:05:47.995Z,996.69
2018-09-23T03:06:54.760Z,996.67
2018-09-23T03:08:01.028Z,996.63
2018-09-23T03:09:06.799Z,996.59
2018-09-23T03:10:13.063Z,996.52
2018-09-23T03:11:19.832Z,996.52
2018-09-23T03:12:25.603Z,996.50
2018-09-23T03:13:32.375Z,996.47
2018-09-23T03:14:38.641Z,996.47
2018-09-23T03:15:44.867Z,996.44
2018-09-23T03:16:50.670Z,996.39
2018-09-23T03:17:56.942Z,996.35
2018-09-23T03:19:03.218Z,996.38
2018-09-23T03:20:09.963Z,996.28
2018-09-23T03:21:15.746Z,996.30
2018-09-23T03:22:22.014Z,996.27
2018-09-23T03:23:28.778Z,996.30
2018-09-23T03:24:34.558Z,996.25
2018-09-23T03:25:41.329Z,996.25
2018-09-23T03:26:47.086Z,996.20
2018-09-23T03:27:53.364Z,996.17
2018-09-23T03:29:00.112Z,996.17
2018-09-23T03:30:06.386Z,996.18
2018-09-23T03:31:12.644Z,996.20
2018-09-23T03:32:18.910Z,996.19
2018-09-23T03:33:24.672Z,996.17
2018-09-23T03:34:30.950Z,996.15
2018-09-23T03:35:37.217Z,996.15
2018-09-23T03:36:43.489Z,996.16
2018-09-23T03:37:50.257Z,996.16
2018-09-23T03:38:56.523Z,996.13
2018-09-23T03:40:02.790Z,996.13
2018-09-23T03:41:09.050Z,996.11
2018-09-23T03:42:15.321Z,996.07
2018-09-23T03:43:21.105Z,996.00
2018-09-23T03:44:27.860Z,995.98
2018-09-23T03:45:34.134Z,995.91
2018-09-23T03:46:40.901Z,995.89
2018-09-23T03:47:46.674Z,995.86
2018-09-23T03:48:52.924Z,995.83
2018-09-23T03:49:59.283Z,995.79
2018-09-23T03:51:04.971Z,995.78
2018-09-23T03:52:11.733Z,995.76
2018-09-23T03:53:18.013Z,995.78
2018-09-23T03:54:25.280Z,995.69
2018-09-23T03:55:30.551Z,995.69
2018-09-23T03:56:36.808Z,995.71
2018-09-23T03:57:43.097Z,995.66
2018-09-23T03:58:49.364Z,995.70
2018-09-23T03:59:55.142Z,995.64
2018-09-23T04:01:01.910Z,995.60
2018-09-23T04:02:08.199Z,995.59
2018-09-23T04:03:14.450Z,995.59
2018-09-23T04:04:20.737Z,995.61
2018-09-23T04:05:26.994Z,995.56
2018-09-23T04:06:33.277Z,995.60
2018-09-23T04:07:39.540Z,995.59
2018-09-23T04:08:45.815Z,995.63
2018-09-23T04:09:52.083Z,995.58
2018-09-23T04:10:58.360Z,995.51
2018-09-23T04:12:04.700Z,995.47
2018-09-23T04:13:10.908Z,995.43
2018-09-23T04:14:17.273Z,995.45
2018-09-23T04:15:23.469Z,995.45
2018-09-23T04:16:30.719Z,995.43
2018-09-23T04:17:36.005Z,995.41
2018-09-23T04:18:42.283Z,995.40
2018-09-23T04:19:48.555Z,995.37
2018-09-23T04:20:54.829Z,995.34
2018-09-23T04:22:01.121Z,995.32
2018-09-23T04:23:07.387Z,995.32
2018-09-23T04:24:13.684Z,995.28
2018-09-23T04:25:19.942Z,995.29
2018-09-23T04:26:26.204Z,995.30
2018-09-23T04:27:32.493Z,995.31
2018-09-23T04:28:38.764Z,995.30
2018-09-23T04:29:45.043Z,995.28
2018-09-23T04:30:50.831Z,995.30
2018-09-23T04:31:57.612Z,995.30
2018-09-23T04:33:03.373Z,995.31
2018-09-23T04:34:10.156Z,995.30
2018-09-23T04:35:16.428Z,995.29
2018-09-23T04:36:22.701Z,995.27
2018-09-23T04:37:28.978Z,995.28
2018-09-23T04:38:35.273Z,995.30
2018-09-23T04:39:41.527Z,995.26
2018-09-23T04:40:47.807Z,995.28
2018-09-23T04:41:54.099Z,995.25
2018-09-23T04:43:00.373Z,995.23
2018-09-23T04:44:06.643Z,995.21
2018-09-23T04:45:12.935Z,995.22
2018-09-23T04:46:19.280Z,995.17
2018-09-23T04:47:24.997Z,995.16
2018-09-23T04:48:31.764Z,995.15
2018-09-23T04:49:38.051Z,995.12
2018-09-23T04:50:44.328Z,995.11
2018-09-23T04:51:50.629Z,995.12
2018-09-23T04:52:56.889Z,995.09
2018-09-23T04:54:03.273Z,995.11
2018-09-23T04:55:09.489Z,995.08
2018-09-23T04:56:15.743Z,995.06
2018-09-23T04:57:22.017Z,995.07
2018-09-23T04:58:27.796Z,995.05
2018-09-23T04:59:35.075Z,995.03
2018-09-23T05:00:40.844Z,994.99
2018-09-23T05:01:47.142Z,994.94
2018-09-23T05:02:53.402Z,994.94
2018-09-23T05:03:59.692Z,994.88
2018-09-23T05:05:05.977Z,994.87
2018-09-23T05:06:12.245Z,994.83
2018-09-23T05:07:18.550Z,994.82
2018-09-23T05:08:24.814Z,994.81
2018-09-23T05:09:30.594Z,994.81
2018-09-23T05:10:37.374Z,994.83
2018-09-23T05:11:43.672Z,994.76
2018-09-23T05:12:49.942Z,994.73
2018-09-23T05:13:56.216Z,994.73
2018-09-23T05:15:02.014Z,994.73
2018-09-23T05:16:08.781Z,994.69
2018-09-23T05:17:15.074Z,994.65
2018-09-23T05:18:20.872Z,994.65
2018-09-23T05:19:27.638Z,994.59
2018-09-23T05:20:33.945Z,994.57
2018-09-23T05:21:40.214Z,994.55
2018-09-23T05:22:45.995Z,994.53
2018-09-23T05:23:52.775Z,994.52
2018-09-23T05:24:59.053Z,994.49
2018-09-23T05:26:05.349Z,994.50
2018-09-23T05:27:12.626Z,994.43
2018-09-23T05:28:17.915Z,994.45
2018-09-23T05:29:24.198Z,994.42
2018-09-23T05:30:30.482Z,994.42
2018-09-23T05:31:36.776Z,994.45
2018-09-23T05:32:43.055Z,994.45
2018-09-23T05:33:49.344Z,994.48
2018-09-23T05:34:55.626Z,994.42
2018-09-23T05:36:01.898Z,994.43
2018-09-23T05:37:08.282Z,994.40
2018-09-23T05:38:14.475Z,994.40
2018-09-23T05:39:20.757Z,994.44
2018-09-23T05:40:27.047Z,994.36
2018-09-23T05:41:33.339Z,994.41
2018-09-23T05:42:39.621Z,994.39
2018-09-23T05:43:46.899Z,994.44
2018-09-23T05:44:52.286Z,994.40
2018-09-23T05:45:57.989Z,994.46
2018-09-23T05:47:04.760Z,994.39
2018-09-23T05:48:11.048Z,994.39
2018-09-23T05:49:16.853Z,994.37
2018-09-23T05:50:23.623Z,994.30
2018-09-23T05:51:29.913Z,994.27
2018-09-23T05:52:36.283Z,994.26
2018-09-23T05:53:41.988Z,994.21
2018-09-23T05:54:48.322Z,994.21
2018-09-23T05:55:54.567Z,994.17
2018-09-23T05:57:01.368Z,994.19
2018-09-23T05:58:07.645Z,994.17
2018-09-23T05:59:13.945Z,994.15
2018-09-23T06:00:20.278Z,994.09
2018-09-23T06:01:26.530Z,994.09
2018-09-23T06:02:32.333Z,994.07
2018-09-23T06:03:39.109Z,994.04
2018-09-23T06:04:45.413Z,994.09
2018-09-23T06:05:51.701Z,994.09
2018-09-23T06:06:57.526Z,994.02
2018-09-23T06:08:04.297Z,994.04
2018-09-23T06:09:10.590Z,994.02
2018-09-23T06:10:16.882Z,994.05
2018-09-23T06:11:23.195Z,994.05
2018-09-23T06:12:29.497Z,994.02
2018-09-23T06:13:35.782Z,993.97
2018-09-23T06:14:42.080Z,993.91
2018-09-23T06:15:48.359Z,993.92
2018-09-23T06:16:54.283Z,993.93
2018-09-23T06:18:00.962Z,993.92
2018-09-23T06:19:07.261Z,993.90
2018-09-23T06:20:13.560Z,993.85
2018-09-23T06:21:19.863Z,993.86
2018-09-23T06:22:26.285Z,993.81
2018-09-23T06:23:31.962Z,993.75
2018-09-23T06:24:39.267Z,993.77
2018-09-23T06:25:45.056Z,993.77
2018-09-23T06:26:51.356Z,993.76
2018-09-23T06:27:57.660Z,993.79
2018-09-23T06:29:03.954Z,993.80
2018-09-23T06:30:10.276Z,993.78
2018-09-23T06:31:16.574Z,993.75
2018-09-23T06:32:22.373Z,993.67
2018-09-23T06:33:29.187Z,993.65
2018-09-23T06:34:35.483Z,993.64
2018-09-23T06:35:41.785Z,993.62
2018-09-23T06:36:47.591Z,993.61
2018-09-23T06:37:54.393Z,993.61
2018-09-23T06:39:00.200Z,993.60
2018-09-23T06:40:07.014Z,993.58
2018-09-23T06:41:13.312Z,993.56
2018-09-23T06:42:19.626Z,993.55
2018-09-23T06:43:25.932Z,993.51
2018-09-23T06:44:32.276Z,993.51
2018-09-23T06:45:38.604Z,993.55
2018-09-23T06:46:44.879Z,993.59
2018-09-23T06:47:51.205Z,993.57
2018-09-23T06:48:57.510Z,993.53
2018-09-23T06:50:03.325Z,993.52
2018-09-23T06:51:09.746Z,993.50
2018-09-23T06:52:16.466Z,993.48
2018-09-23T06:53:22.783Z,993.48
2018-09-23T06:54:29.094Z,993.49
2018-09-23T06:55:35.412Z,993.45
2018-09-23T06:56:41.742Z,993.39
2018-09-23T06:57:48.071Z,993.33
2018-09-23T06:58:54.382Z,993.33
2018-09-23T07:00:00.688Z,993.33
2018-09-23T07:01:07.012Z,993.26
2018-09-23T07:02:13.334Z,993.33
2018-09-23T07:03:19.669Z,993.28
2018-09-23T07:04:26.010Z,993.30
2018-09-23T07:05:32.328Z,993.31
2018-09-23T07:06:38.649Z,993.29
2018-09-23T07:07:44.962Z,993.30
2018-09-23T07:08:50.798Z,993.31
2018-09-23T07:09:57.111Z,993.27
2018-09-23T07:11:03.447Z,993.26
2018-09-23T07:12:10.276Z,993.24
2018-09-23T07:13:16.592Z,993.26
2018-09-23T07:14:22.925Z,993.25
2018-09-23T07:15:29.224Z,993.32
2018-09-23T07:16:35.584Z,993.29
2018-09-23T07:17:41.891Z,993.31
2018-09-23T07:18:48.295Z,993.27
2018-09-23T07:19:54.047Z,993.25
2018-09-23T07:21:00.375Z,993.21
2018-09-23T07:22:07.173Z,993.16
2018-09-23T07:23:13.015Z,993.12
2018-09-23T07:24:19.854Z,993.16
2018-09-23T07:25:25.665Z,993.14
2018-09-23T07:26:32.478Z,993.17
2018-09-23T07:27:38.815Z,993.17
2018-09-23T07:28:45.151Z,993.18
2018-09-23T07:29:51.519Z,993.18
2018-09-23T07:30:57.807Z,993.15
2018-09-23T07:32:04.130Z,993.12
2018-09-23T07:33:10.461Z,993.10
2018-09-23T07:34:16.314Z,993.09
2018-09-23T07:35:22.629Z,993.09
2018-09-23T07:36:29.475Z,993.08
2018-09-23T07:37:35.842Z,993.08
2018-09-23T07:38:41.641Z,993.11
2018-09-23T07:39:48.524Z,993.11
2018-09-23T07:40:54.811Z,993.15
2018-09-23T07:42:01.140Z,993.09
2018-09-23T07:43:07.494Z,993.13
2018-09-23T07:44:14.830Z,993.10
2018-09-23T07:45:20.276Z,993.09
2018-09-23T07:46:26.510Z,993.09
2018-09-23T07:47:32.846Z,993.07
2018-09-23T07:48:39.202Z,993.06
2018-09-23T07:49:45.546Z,993.08
2018-09-23T07:50:51.884Z,993.02
2018-09-23T07:51:58.278Z,993.02
2018-09-23T07:53:04.073Z,993.01
2018-09-23T07:54:10.934Z,992.99
2018-09-23T07:55:18.230Z,992.91
2018-09-23T07:56:24.661Z,992.96
2018-09-23T07:57:29.999Z,992.97
2018-09-23T07:58:37.349Z,992.97
2018-09-23T07:59:42.722Z,993.03
2018-09-23T08:00:48.671Z,993.00
2018-09-23T08:01:55.420Z,992.97
2018-09-23T08:03:01.776Z,992.89
2018-09-23T08:04:08.129Z,992.89
2018-09-23T08:05:14.479Z,992.90
2018-09-23T08:06:20.845Z,992.91
2018-09-23T08:07:27.195Z,992.85
2018-09-23T08:08:33.551Z,992.80
2018-09-23T08:09:39.914Z,992.83
2018-09-23T08:10:46.284Z,992.75
2018-09-23T08:11:53.626Z,992.80
2018-09-23T08:12:59.201Z,992.84
2018-09-23T08:14:05.654Z,992.83
2018-09-23T08:15:11.702Z,992.88
2018-09-23T08:16:18.057Z,992.79
2018-09-23T08:17:23.916Z,992.79
2018-09-23T08:18:30.777Z,992.77
2018-09-23T08:19:36.790Z,992.73
2018-09-23T08:20:43.505Z,992.71
2018-09-23T08:21:49.862Z,992.74
2018-09-23T08:22:56.277Z,992.66
2018-09-23T08:24:02.575Z,992.71
2018-09-23T08:25:08.988Z,992.71
2018-09-23T08:26:15.311Z,992.69
2018-09-23T08:27:21.187Z,992.67
2018-09-23T08:28:28.065Z,992.66
2018-09-23T08:29:33.947Z,992.65
2018-09-23T08:30:40.828Z,992.62
2018-09-23T08:31:46.686Z,992.63
2018-09-23T08:32:53.569Z,992.56
2018-09-23T08:33:59.945Z,992.59
2018-09-23T08:35:06.324Z,992.59
2018-09-23T08:36:12.704Z,992.57
2018-09-23T08:37:19.144Z,992.56
2018-09-23T08:38:24.969Z,992.62
2018-09-23T08:39:31.843Z,992.60
2018-09-23T08:40:38.292Z,992.64
2018-09-23T08:41:44.605Z,992.62
2018-09-23T08:42:51.040Z,992.60
2018-09-23T08:43:57.407Z,992.59
2018-09-23T08:45:03.251Z,992.54
2018-09-23T08:46:10.131Z,992.59
2018-09-23T08:47:16.027Z,992.58
2018-09-23T08:48:22.968Z,992.51
2018-09-23T08:49:29.257Z,992.50
2018-09-23T08:50:35.647Z,992.46
2018-09-23T08:51:42.075Z,992.43
2018-09-23T08:52:48.413Z,992.40
2018-09-23T08:53:54.804Z,992.45
2018-09-23T08:55:01.214Z,992.39
2018-09-23T08:56:07.125Z,992.31
2018-09-23T08:57:14.037Z,992.32
2018-09-23T08:58:20.395Z,992.18
2018-09-23T08:59:26.843Z,992.19
2018-09-23T09:00:33.203Z,992.14
2018-09-23T09:01:39.618Z,992.18
2018-09-23T09:02:46.015Z,992.15
2018-09-23T09:03:52.484Z,992.20
2018-09-23T09:04:58.857Z,992.15
2018-09-23T09:06:05.254Z,992.09
2018-09-23T09:07:11.647Z,992.06
2018-09-23T09:08:18.113Z,992.06
2018-09-23T09:09:24.478Z,992.03
2018-09-23T09:10:30.955Z,992.05
2018-09-23T09:11:37.358Z,992.04
2018-09-23T09:12:43.732Z,992.00
2018-09-23T09:13:50.155Z,991.97
2018-09-23T09:14:56.078Z,991.92
2018-09-23T09:16:03.019Z,991.89
2018-09-23T09:17:09.417Z,991.82
2018-09-23T09:18:15.414Z,991.76
2018-09-23T09:19:22.278Z,991.68
2018-09-23T09:20:28.680Z,991.68
2018-09-23T09:21:35.127Z,991.67
2018-09-23T09:22:41.551Z,991.66
2018-09-23T09:23:47.481Z,991.58
2018-09-23T09:24:53.916Z,991.66
2018-09-23T09:26:00.855Z,991.59
2018-09-23T09:27:06.828Z,991.59
2018-09-23T09:28:13.227Z,991.58
2018-09-23T09:29:20.174Z,991.58
2018-09-23T09:30:26.597Z,991.59
2018-09-23T09:31:33.013Z,991.61
2018-09-23T09:32:39.433Z,991.56
2018-09-23T09:33:45.851Z,991.55
2018-09-23T09:34:51.770Z,991.50
2018-09-23T09:35:58.686Z,991.48
2018-09-23T09:37:05.085Z,991.41
2018-09-23T09:38:11.488Z,991.39
2018-09-23T09:39:17.913Z,991.36
2018-09-23T09:40:24.329Z,991.38
2018-09-23T09:41:30.758Z,991.34
2018-09-23T09:42:37.276Z,991.33
2018-09-23T09:43:43.595Z,991.28
2018-09-23T09:44:50.016Z,991.35
2018-09-23T09:45:56.427Z,991.36
2018-09-23T09:47:02.366Z,991.30
2018-09-23T09:48:09.282Z,991.30
2018-09-23T09:49:15.221Z,991.27
2018-09-23T09:50:22.146Z,991.24
2018-09-23T09:51:28.617Z,991.24
2018-09-23T09:52:35.028Z,991.26
2018-09-23T09:53:41.473Z,991.22
2018-09-23T09:54:47.409Z,991.21
2018-09-23T09:55:54.319Z,991.18
2018-09-23T09:57:00.268Z,991.13
2018-09-23T09:58:07.277Z,991.08
2018-09-23T09:59:13.625Z,991.07
2018-09-23T10:00:20.059Z,990.97
2018-09-23T10:01:26.500Z,991.03
2018-09-23T10:02:32.489Z,991.01
2018-09-23T10:03:39.405Z,991.03
2018-09-23T10:04:45.851Z,991.02
2018-09-23T10:05:52.282Z,990.92
2018-09-23T10:06:58.821Z,990.85
2018-09-23T10:08:05.285Z,990.82
2018-09-23T10:09:11.618Z,990.80
2018-09-23T10:10:18.045Z,990.79
2018-09-23T10:11:24.609Z,990.78
2018-09-23T10:12:30.959Z,990.75
2018-09-23T10:13:37.375Z,990.72
2018-09-23T10:14:43.356Z,990.70
2018-09-23T10:15:50.266Z,990.63
2018-09-23T10:16:56.214Z,990.60
2018-09-23T10:18:02.649Z,990.63
2018-09-23T10:19:09.567Z,990.60
2018-09-23T10:20:16.011Z,990.59
2018-09-23T10:21:22.477Z,990.55
2018-09-23T10:22:28.911Z,990.54
2018-09-23T10:23:35.536Z,990.50
2018-09-23T10:24:41.741Z,990.45
2018-09-23T10:25:48.174Z,990.42
2018-09-23T10:26:54.626Z,990.34
2018-09-23T10:28:01.072Z,990.33
2018-09-23T10:29:07.019Z,990.34
2018-09-23T10:30:13.959Z,990.35
2018-09-23T10:31:20.471Z,990.29
2018-09-23T10:32:26.851Z,990.37
2018-09-23T10:33:32.790Z,990.35
2018-09-23T10:34:40.720Z,990.33
2018-09-23T10:35:46.172Z,990.34
2018-09-23T10:36:52.605Z,990.27
2018-09-23T10:37:59.034Z,990.31
2018-09-23T10:39:04.977Z,990.21
2018-09-23T10:40:11.918Z,990.15
2018-09-23T10:41:18.415Z,990.05
2018-09-23T10:42:25.252Z,989.99
2018-09-23T10:43:31.285Z,989.95
2018-09-23T10:44:37.672Z,989.88
2018-09-23T10:45:44.116Z,989.81
2018-09-23T10:46:50.555Z,989.76
2018-09-23T10:47:57.012Z,989.69
2018-09-23T10:49:03.442Z,989.65
2018-09-23T10:50:09.388Z,989.61
2018-09-23T10:51:15.827Z,989.54
2018-09-23T10:52:22.789Z,989.52
2018-09-23T10:53:29.283Z,989.46
2018-09-23T10:54:35.704Z,989.45
2018-09-23T10:55:42.158Z,989.40
2018-09-23T10:56:48.592Z,989.39
2018-09-23T10:57:55.048Z,989.37
2018-09-23T10:59:01.516Z,989.34
2018-09-23T11:00:07.963Z,989.36
2018-09-23T11:01:14.426Z,989.33
2018-09-23T11:02:21.075Z,989.33
2018-09-23T11:03:27.328Z,989.30
2018-09-23T11:04:33.263Z,989.26
2018-09-23T11:05:40.209Z,989.20
2018-09-23T11:06:47.101Z,989.19
2018-09-23T11:07:53.115Z,989.18
2018-09-23T11:08:59.574Z,989.12
2018-09-23T11:10:06.021Z,989.11
2018-09-23T11:11:12.283Z,989.07
2018-09-23T11:12:18.418Z,989.01
2018-09-23T11:13:25.393Z,988.97
2018-09-23T11:14:31.811Z,988.94
2018-09-23T11:15:38.277Z,988.97
2018-09-23T11:16:44.701Z,988.91
2018-09-23T11:17:51.162Z,988.86
2018-09-23T11:18:57.116Z,988.83
2018-09-23T11:20:04.071Z,988.79
2018-09-23T11:21:10.528Z,988.78
2018-09-23T11:22:16.988Z,988.74
2018-09-23T11:23:23.578Z,988.67
2018-09-23T11:24:29.427Z,988.60
2018-09-23T11:25:36.395Z,988.57
2018-09-23T11:26:42.860Z,988.52
2018-09-23T11:27:49.334Z,988.50
2018-09-23T11:28:55.804Z,988.45
2018-09-23T11:30:01.767Z,988.35
2018-09-23T11:31:08.734Z,988.34
2018-09-23T11:32:15.326Z,988.32
2018-09-23T11:33:21.674Z,988.29
2018-09-23T11:34:28.184Z,988.27
2018-09-23T11:35:35.660Z,988.23
2018-09-23T11:36:41.098Z,988.21
2018-09-23T11:37:47.580Z,988.19
2018-09-23T11:38:54.058Z,988.18
2018-09-23T11:40:00.539Z,988.16
2018-09-23T11:41:07.423Z,988.13
2018-09-23T11:42:13.428Z,988.11
2018-09-23T11:43:19.410Z,988.06
2018-09-23T11:44:26.367Z,988.03
2018-09-23T11:45:32.809Z,987.98
2018-09-23T11:46:39.305Z,987.97
2018-09-23T11:47:45.741Z,987.93
2018-09-23T11:48:52.230Z,987.91
2018-09-23T11:49:58.672Z,987.85
2018-09-23T11:51:04.627Z,987.79
2018-09-23T11:52:11.593Z,987.72
2018-09-23T11:53:18.055Z,987.62
2018-09-23T11:54:24.520Z,987.56
2018-09-23T11:55:30.485Z,987.53
2018-09-23T11:56:37.444Z,987.48
2018-09-23T11:57:43.925Z,987.39
2018-09-23T11:58:50.443Z,987.34
2018-09-23T11:59:57.316Z,987.37
2018-09-23T12:01:03.321Z,987.28
2018-09-23T12:02:09.824Z,987.23
2018-09-23T12:03:16.283Z,987.19
2018-09-23T12:04:22.766Z,987.15
2018-09-23T12:05:29.275Z,987.09
2018-09-23T12:06:35.717Z,987.02
2018-09-23T12:07:41.720Z,986.90
2018-09-23T12:08:48.681Z,986.87
2018-09-23T12:09:55.285Z,986.86
2018-09-23T12:11:01.761Z,986.75
2018-09-23T12:12:08.116Z,986.75
2018-09-23T12:13:14.607Z,986.73
2018-09-23T12:14:21.080Z,986.64
2018-09-23T12:15:27.578Z,986.61
2018-09-23T12:16:34.012Z,986.55
2018-09-23T12:17:40.500Z,986.49
2018-09-23T12:18:46.995Z,986.36
2018-09-23T12:19:53.463Z,986.24
2018-09-23T12:20:59.453Z,986.15
2018-09-23T12:22:06.419Z,986.08
2018-09-23T12:23:12.402Z,986.02
2018-09-23T12:24:18.860Z,986.03
2018-09-23T12:25:25.904Z,986.09
2018-09-23T12:26:32.279Z,986.05
2018-09-23T12:27:38.757Z,986.04
2018-09-23T12:28:45.237Z,985.97
2018-09-23T12:29:51.729Z,985.96
2018-09-23T12:30:58.194Z,985.87
2018-09-23T12:32:04.691Z,985.76
2018-09-23T12:33:11.355Z,985.75
2018-09-23T12:34:17.284Z,985.62
2018-09-23T12:35:24.168Z,985.62
2018-09-23T12:36:30.164Z,985.72
2018-09-23T12:37:37.144Z,985.83
2018-09-23T12:38:43.644Z,985.73
2018-09-23T12:39:49.707Z,985.64
2018-09-23T12:40:56.621Z,985.67
2018-09-23T12:42:03.109Z,985.69
2018-09-23T12:43:09.605Z,985.63
2018-09-23T12:44:16.115Z,985.57
2018-09-23T12:45:22.608Z,985.48
2018-09-23T12:46:29.116Z,985.42
2018-09-23T12:47:35.148Z,985.46
2018-09-23T12:48:41.664Z,985.33
2018-09-23T12:49:48.678Z,985.27
2018-09-23T12:50:55.185Z,985.28
2018-09-23T12:52:01.717Z,985.30
2018-09-23T12:53:08.224Z,985.20
2018-09-23T12:54:14.753Z,985.13
2018-09-23T12:55:21.280Z,985.06
2018-09-23T12:56:27.308Z,985.07
2018-09-23T12:57:33.866Z,985.02
2018-09-23T12:58:40.899Z,984.93
2018-09-23T12:59:47.448Z,984.95
2018-09-23T13:02:00.546Z,984.86
2018-09-23T13:03:07.064Z,984.98
2018-09-23T13:04:13.638Z,984.83
2018-09-23T13:05:20.202Z,984.70
2018-09-23T13:06:26.832Z,984.67
2018-09-23T13:07:33.298Z,984.65
2018-09-23T13:08:39.308Z,984.71
2018-09-23T13:09:45.854Z,984.61
2018-09-23T13:10:52.387Z,984.67
2018-09-23T13:11:59.465Z,984.62
2018-09-23T13:13:05.962Z,984.63
2018-09-23T13:14:12.484Z,984.53
2018-09-23T13:15:19.059Z,984.54
2018-09-23T13:16:25.133Z,984.47
2018-09-23T13:17:32.205Z,984.40
2018-09-23T13:18:39.167Z,984.21
2018-09-23T13:19:46.185Z,984.14
2018-09-23T13:20:51.750Z,984.20
2018-09-23T13:21:57.790Z,984.14
2018-09-23T13:23:04.352Z,984.13
2018-09-23T13:24:10.879Z,984.07
2018-09-23T13:25:18.888Z,983.93
2018-09-23T13:26:23.971Z,983.81
2018-09-23T13:27:30.495Z,983.81
2018-09-23T13:28:37.543Z,983.85
2018-09-23T13:29:45.079Z,983.78
2018-09-23T13:30:50.629Z,983.69
2018-09-23T13:31:56.683Z,983.71
2018-09-23T13:33:03.726Z,983.52
2018-09-23T13:34:09.781Z,983.51
2018-09-23T13:35:17.841Z,983.47
2018-09-23T13:36:23.407Z,983.49
2018-09-23T13:37:29.490Z,983.44
2018-09-23T13:38:36.541Z,983.41
2018-09-23T13:39:42.622Z,983.39
2018-09-23T13:40:49.162Z,983.40
2018-09-23T13:41:56.292Z,983.32
2018-09-23T13:43:03.756Z,983.22
2018-09-23T13:44:09.319Z,983.18
2018-09-23T13:45:15.389Z,983.14
2018-09-23T13:46:22.462Z,983.00
2018-09-23T13:47:28.512Z,983.01
2018-09-23T13:48:35.066Z,982.91